Time;durP1;ratioP1;P1;durP2;ratioP2;P2;SDS_P1;SDS_P2;PMS_P1;PMS_P2;Temp;Humidity;BMP_temperature;BMP_pressure;BME280_temperature;BME280_humidity;BME280_pressure;Samples;Min_cycle;Max_cycle;Signal;HPM_P1;HPM_P2
2024/04/25 00:00:12;;;;;;;34.35;14.33;;;;;;;10.32;100.00;99234.02;1797905;79;21069;-80
2024/04/25 00:02:40;;;;;;;26.65;11.10;;;;;;;10.26;100.00;99234.92;1798217;79;21037;-83
2024/04/25 00:05:09;;;;;;;19.82;8.05;;;;;;;10.22;100.00;99243.80;1798206;80;20998;-83
2024/04/25 00:07:37;;;;;;;15.70;8.13;;;;;;;10.20;100.00;99241.79;1798324;80;20982;-80
2024/04/25 00:10:07;;;;;;;15.55;6.72;;;;;;;10.16;100.00;99249.61;1798105;80;21037;-82
2024/04/25 00:12:36;;;;;;;12.28;6.72;;;;;;;10.14;100.00;99249.00;1798244;80;21450;-84
2024/04/25 00:15:04;;;;;;;12.33;6.35;;;;;;;10.10;100.00;99255.45;1798185;79;21049;-83
2024/04/25 00:17:33;;;;;;;10.20;5.80;;;;;;;10.06;100.00;99260.22;1798227;80;21049;-85
2024/04/25 00:20:01;;;;;;;13.58;6.45;;;;;;;10.01;100.00;99263.63;1798104;79;21014;-84
2024/04/25 00:22:30;;;;;;;12.33;6.75;;;;;;;9.96;100.00;99251.14;1798168;80;21149;-83
2024/04/25 00:24:59;;;;;;;13.80;6.97;;;;;;;9.94;100.00;99246.95;1798205;80;21430;-83
2024/04/25 00:27:27;;;;;;;10.10;5.70;;;;;;;9.92;100.00;99254.54;1798436;79;21041;-83
2024/04/25 00:29:57;;;;;;;10.15;5.95;;;;;;;9.86;100.00;99256.27;1798199;80;21033;-84
2024/04/25 00:32:25;;;;;;;10.35;5.10;;;;;;;9.82;100.00;99254.50;1798171;80;21025;-83
2024/04/25 00:34:53;;;;;;;10.13;5.60;;;;;;;9.80;100.00;99250.30;1798271;79;21005;-83
2024/04/25 00:37:22;;;;;;;10.20;5.25;;;;;;;9.75;100.00;99263.28;1798119;80;21511;-83
2024/04/25 00:39:51;;;;;;;8.10;5.40;;;;;;;9.69;100.00;99264.13;1798186;80;21005;-82
2024/04/25 00:42:21;;;;;;;9.10;4.92;;;;;;;9.66;100.00;99270.56;1798236;80;21014;-83
2024/04/25 00:44:49;;;;;;;8.18;5.25;;;;;;;9.62;100.00;99269.33;1798653;79;21053;-82
2024/04/25 00:47:22;;;;;;;9.53;5.53;;;;;;;9.60;100.00;99275.55;1799315;79;21065;-81
2024/04/25 00:49:52;;;;;;;9.30;5.80;;;;;;;9.58;100.00;99282.59;1799101;80;21041;-83
2024/04/25 00:52:22;;;;;;;11.90;5.60;;;;;;;9.57;100.00;99278.72;1799527;79;21021;-84
2024/04/25 00:54:50;;;;;;;7.87;5.30;;;;;;;9.55;100.00;99274.83;1799277;80;21054;-83
2024/04/25 00:57:19;;;;;;;7.90;5.40;;;;;;;9.53;100.00;99282.42;1776824;80;21096;-83
2024/04/25 00:59:49;;;;;;;10.32;5.15;;;;;;;9.50;100.00;99281.48;1798272;79;21042;-82
2024/04/25 01:02:18;;;;;;;10.10;5.50;;;;;;;9.47;100.00;99277.30;1798878;80;21018;-83
2024/04/25 01:04:46;;;;;;;8.18;5.53;;;;;;;9.45;100.00;99284.03;1799044;80;21234;-82
2024/04/25 01:07:16;;;;;;;8.43;5.50;;;;;;;9.43;100.00;99299.29;1799075;79;21049;-82
2024/04/25 01:09:44;;;;;;;12.03;7.12;;;;;;;9.41;100.00;99303.30;1800821;79;21033;-79
2024/04/25 01:12:13;;;;;;;12.45;7.95;;;;;;;9.38;100.00;99294.16;1798649;80;21077;-83
2024/04/25 01:14:41;;;;;;;15.23;7.83;;;;;;;9.36;100.00;99297.11;1798445;80;21065;-83
2024/04/25 01:17:10;;;;;;;10.38;7.28;;;;;;;9.34;100.00;99301.12;1798290;79;21002;-83
2024/04/25 01:19:38;;;;;;;13.05;7.20;;;;;;;9.32;100.00;99289.03;1798264;79;21021;-81
2024/04/25 01:22:06;;;;;;;14.13;6.92;;;;;;;9.28;100.00;99288.32;1798310;79;21065;-84
2024/04/25 01:24:35;;;;;;;12.98;6.50;;;;;;;9.24;100.00;99291.17;1798468;80;21029;-84
2024/04/25 01:27:03;;;;;;;11.43;7.15;;;;;;;9.21;100.00;99291.92;1798006;80;21520;-83
2024/04/25 01:29:32;;;;;;;10.38;5.80;;;;;;;9.24;100.00;99295.27;1798278;79;21033;-83
2024/04/25 01:32:01;;;;;;;13.55;6.30;;;;;;;9.24;100.00;99300.73;1800964;80;20989;-82
2024/04/25 01:34:29;;;;;;;11.18;6.20;;;;;;;9.21;100.00;99300.64;1798999;80;21005;-83
2024/04/25 01:36:57;;;;;;;9.35;5.85;;;;;;;9.19;100.00;99303.59;1798774;79;21006;-83
2024/04/25 01:39:29;;;;;;;8.60;5.42;;;;;;;9.17;100.00;99300.23;1798301;79;20982;-81
2024/04/25 01:41:57;;;;;;;13.72;6.00;;;;;;;9.11;100.00;99295.64;1798394;79;21072;-83
2024/04/25 01:44:25;;;;;;;11.25;6.42;;;;;;;9.05;100.00;99297.83;1798424;80;21024;-83
2024/04/25 01:46:56;;;;;;;8.70;5.12;;;;;;;9.01;100.00;99301.20;1798257;79;21264;-83
2024/04/25 01:49:24;;;;;;;8.80;6.35;;;;;;;8.98;100.00;99292.07;1798196;80;21009;-83
2024/04/25 01:51:52;;;;;;;9.45;5.30;;;;;;;8.96;100.00;99297.75;1798346;79;20994;-84
2024/04/25 01:54:21;;;;;;;8.78;5.80;;;;;;;8.97;100.00;99295.86;1798864;80;21029;-83
2024/04/25 01:56:49;;;;;;;8.53;5.62;;;;;;;8.97;100.00;99306.78;1798302;79;21018;-82
2024/04/25 01:59:17;;;;;;;9.00;5.62;;;;;;;8.95;100.00;99309.73;1798383;79;21041;-82
2024/04/25 02:01:46;;;;;;;12.25;6.90;;;;;;;8.94;100.00;99314.05;1798332;79;21037;-82
2024/04/25 02:04:14;;;;;;;17.48;8.58;;;;;;;8.90;100.00;99310.38;1776398;80;21029;-83
2024/04/25 02:06:42;;;;;;;11.93;7.87;;;;;;;8.90;100.00;99320.46;1798633;80;21041;-81
2024/04/25 02:09:11;;;;;;;12.37;8.45;;;;;;;8.88;100.00;99328.87;1798453;80;21005;-83
2024/04/25 02:11:39;;;;;;;13.15;8.05;;;;;;;8.88;100.00;99330.77;1798236;80;21449;-81
2024/04/25 02:14:08;;;;;;;13.08;8.48;;;;;;;8.89;100.00;99325.61;1798568;80;20977;-84
2024/04/25 02:16:36;;;;;;;13.88;8.08;;;;;;;8.88;100.00;99326.66;1798655;80;21005;-81
2024/04/25 02:19:04;;;;;;;12.73;8.15;;;;;;;8.88;100.00;99331.60;1798687;79;21025;-83
2024/04/25 02:27:06;;;;;;;8.45;5.42;;;;;;;8.84;100.00;99350.83;1798481;80;21059;-83
2024/04/25 02:29:35;;;;;;;11.95;6.70;;;;;;;8.81;100.00;99355.88;1798535;80;21430;-82
2024/04/25 02:32:03;;;;;;;11.65;7.45;;;;;;;8.77;100.00;99356.83;1798620;80;21511;-81
2024/04/25 02:34:32;;;;;;;12.75;7.28;;;;;;;8.77;100.00;99358.20;1798236;79;21042;-82
2024/04/25 02:37:01;;;;;;;13.68;7.08;;;;;;;8.80;100.00;99360.50;1798231;79;21256;-82
2024/04/25 02:39:31;;;;;;;12.55;7.33;;;;;;;8.86;100.00;99367.01;1798247;80;21065;-83
2024/04/25 02:42:00;;;;;;;10.15;6.60;;;;;;;8.89;100.00;99354.29;1798155;79;21026;-83
2024/04/25 02:44:28;;;;;;;13.65;7.30;;;;;;;8.95;100.00;99357.54;1798402;79;20978;-81
2024/04/25 02:46:56;;;;;;;14.58;7.17;;;;;;;9.00;100.00;99360.47;1798162;80;20994;-83
2024/04/25 02:49:27;;;;;;;12.37;7.05;;;;;;;9.05;100.00;99363.93;1798207;79;21021;-83
2024/04/25 02:51:54;;;;;;;12.63;6.72;;;;;;;9.07;100.00;99365.39;1798193;80;21021;-82
2024/04/25 02:54:23;;;;;;;12.37;6.83;;;;;;;9.12;100.00;99363.42;1798393;79;21029;-82
2024/04/25 02:56:51;;;;;;;12.47;7.58;;;;;;;9.15;100.00;99362.99;1798198;80;21021;-81
2024/04/25 02:59:19;;;;;;;9.43;6.90;;;;;;;9.18;100.00;99367.50;1798138;79;21013;-82
2024/04/25 03:01:48;;;;;;;12.13;7.00;;;;;;;9.18;100.00;99362.04;1798057;80;21085;-83
2024/04/25 03:04:16;;;;;;;12.18;7.03;;;;;;;9.21;100.00;99358.03;1798230;80;21009;-82
2024/04/25 03:06:45;;;;;;;12.03;6.87;;;;;;;9.21;100.00;99366.23;1798099;80;21484;-81
2024/04/25 03:09:13;;;;;;;12.68;7.40;;;;;;;9.22;100.00;99365.19;1798296;80;21053;-82
2024/04/25 03:11:42;;;;;;;11.90;7.78;;;;;;;9.25;100.00;99362.55;1800389;80;21461;-81
2024/04/25 03:14:10;;;;;;;11.00;7.92;;;;;;;9.27;100.00;99362.64;1798676;79;21056;-82
2024/04/25 03:16:39;;;;;;;14.33;7.78;;;;;;;9.30;100.00;99364.11;1798313;79;20998;-82
2024/04/25 03:19:07;;;;;;;11.65;7.62;;;;;;;9.31;100.00;99361.16;1798439;79;21049;-83
2024/04/25 03:21:36;;;;;;;13.62;7.83;;;;;;;9.33;100.00;99358.21;1805185;79;21056;-82
2024/04/25 03:24:04;;;;;;;11.93;7.03;;;;;;;9.35;100.00;99362.41;1813130;79;21012;-82
2024/04/25 03:26:33;;;;;;;13.35;7.67;;;;;;;9.36;100.00;99372.81;1812973;79;21013;-80
2024/04/25 03:29:01;;;;;;;11.00;7.37;;;;;;;9.38;100.00;99365.23;1816656;79;21035;-79
2024/04/25 03:31:29;;;;;;;12.68;7.87;;;;;;;9.41;100.00;99372.48;1815545;79;21031;-82
2024/04/25 03:33:57;;;;;;;12.63;7.62;;;;;;;9.43;100.00;99369.00;1813113;79;21044;-82
2024/04/25 03:36:26;;;;;;;13.40;7.83;;;;;;;9.47;100.00;99365.31;1812817;79;21032;-83
2024/04/25 03:38:54;;;;;;;12.73;7.40;;;;;;;9.49;100.00;99368.67;1813280;79;21449;-81
2024/04/25 03:41:22;;;;;;;15.93;7.70;;;;;;;9.49;100.00;99358.57;1813977;79;21107;-80
2024/04/25 03:43:51;;;;;;;11.88;7.35;;;;;;;9.52;100.00;99355.93;1813431;79;20969;-81
2024/04/25 03:46:19;;;;;;;9.60;7.17;;;;;;;9.54;100.00;99359.29;1812823;79;21009;-81
2024/04/25 03:48:48;;;;;;;18.05;13.28;;;;;;;9.57;100.00;99362.95;1812893;79;21029;-82
2024/04/25 03:51:17;;;;;;;19.85;12.30;;;;;;;9.59;100.00;99351.27;1813254;79;21076;-83
2024/04/25 03:53:45;;;;;;;21.30;13.25;;;;;;;9.64;100.00;99357.45;1812934;79;21048;-83
2024/04/25 03:56:13;;;;;;;50.58;33.02;;;;;;;9.68;100.00;99365.02;1812829;79;20997;-83
2024/04/25 03:58:42;;;;;;;64.45;38.53;;;;;;;9.73;100.00;99365.20;1812977;79;21025;-83
2024/04/25 04:01:10;;;;;;;83.47;46.00;;;;;;;9.77;100.00;99370.58;1812846;79;20993;-84
2024/04/25 04:03:38;;;;;;;85.22;46.83;;;;;;;9.78;100.00;99379.09;1813164;79;21028;-82
2024/04/25 04:06:07;;;;;;;34.80;19.48;;;;;;;9.84;100.00;99379.59;1813194;79;21044;-82
2024/04/25 04:08:36;;;;;;;16.87;11.03;;;;;;;9.90;100.00;99385.25;1792463;79;21437;-82
2024/04/25 04:11:05;;;;;;;16.32;10.98;;;;;;;9.96;100.00;99380.27;1812648;79;21052;-81
2024/04/25 04:13:35;;;;;;;14.35;8.78;;;;;;;10.01;100.00;99381.29;1812852;79;20989;-83
2024/04/25 04:16:07;;;;;;;12.07;7.90;;;;;;;10.07;100.00;99386.42;1812803;79;21044;-81
2024/04/25 04:18:35;;;;;;;12.07;8.73;;;;;;;10.14;100.00;99389.95;1793276;79;21032;-83
2024/04/25 04:21:04;;;;;;;14.50;8.75;;;;;;;10.21;100.00;99390.78;1811833;79;21044;-84
2024/04/25 04:23:32;;;;;;;14.28;9.70;;;;;;;10.27;100.00;99392.64;1806686;79;21505;-83
2024/04/25 04:26:01;;;;;;;12.80;7.55;;;;;;;10.33;100.00;99386.28;1806695;79;21048;-84
2024/04/25 04:28:29;;;;;;;11.38;6.83;;;;;;;10.41;100.00;99394.26;1806927;79;21024;-82
2024/04/25 04:30:57;;;;;;;12.05;8.90;;;;;;;10.50;100.00;99393.98;1806870;79;21048;-83
2024/04/25 04:33:26;;;;;;;10.60;6.75;;;;;;;10.58;100.00;99401.94;1807076;78;21005;-82
2024/04/25 04:35:55;;;;;;;10.10;6.37;;;;;;;10.67;100.00;99401.97;1806786;79;21029;-82
2024/04/25 04:38:23;;;;;;;9.83;6.97;;;;;;;10.75;100.00;99406.64;1806719;79;21045;-84
2024/04/25 04:40:54;;;;;;;14.80;7.47;;;;;;;10.85;100.00;99403.93;1806801;79;21005;-85
2024/04/25 04:43:21;;;;;;;10.40;6.83;;;;;;;10.95;100.00;99398.25;1776333;79;21525;-83
2024/04/25 04:45:55;;;;;;;10.53;7.33;;;;;;;11.01;100.00;99397.34;1806653;79;21386;-84
2024/04/25 04:48:20;;;;;;;12.30;7.08;;;;;;;11.11;100.00;99400.98;1806142;79;21036;-83
2024/04/25 04:50:51;;;;;;;9.10;7.00;;;;;;;11.18;100.00;99399.54;1806009;78;21023;-80
2024/04/25 04:53:19;;;;;;;9.73;7.15;;;;;;;11.26;100.00;99392.39;1777127;79;21069;-83
2024/04/25 04:55:48;;;;;;;11.03;7.70;;;;;;;11.31;100.00;99400.78;1806635;79;21029;-84
2024/04/25 04:58:16;;;;;;;12.23;8.00;;;;;;;11.36;100.00;99401.77;1806511;79;20993;-82
2024/04/25 05:00:45;;;;;;;11.93;7.47;;;;;;;11.42;100.00;99405.51;1775784;79;20994;-83
2024/04/25 05:03:14;;;;;;;10.15;6.97;;;;;;;11.47;100.00;99412.52;1806715;79;21017;-80
2024/04/25 05:05:43;;;;;;;14.35;7.95;;;;;;;11.51;100.00;99412.38;1806407;79;21005;-82
2024/04/25 05:08:11;;;;;;;15.10;8.25;;;;;;;11.56;100.00;99412.52;1806441;79;21068;-81
2024/04/25 05:10:40;;;;;;;13.38;9.18;;;;;;;11.62;100.00;99412.98;1806530;79;21017;-82
2024/04/25 05:13:09;;;;;;;13.25;9.23;;;;;;;11.68;100.00;99407.95;1806445;79;21033;-81
2024/04/25 05:15:38;;;;;;;13.13;8.65;;;;;;;11.75;100.00;99412.86;1806301;79;21025;-82
2024/04/25 05:18:07;;;;;;;13.60;8.58;;;;;;;11.83;100.00;99426.83;1806223;79;21037;-80
2024/04/25 05:20:35;;;;;;;15.98;8.98;;;;;;;11.89;100.00;99415.47;1806480;79;20998;-82
2024/04/25 05:23:04;;;;;;;15.08;8.85;;;;;;;11.96;100.00;99417.59;1811607;79;21029;-82
2024/04/25 05:25:33;;;;;;;38.23;18.82;;;;;;;12.03;100.00;99423.30;1812849;79;21036;-83
2024/04/25 05:28:01;;;;;;;26.65;15.10;;;;;;;12.10;100.00;99423.22;1812473;79;21048;-80
2024/04/25 05:30:30;;;;;;;14.83;10.10;;;;;;;12.16;100.00;99419.55;1812507;79;21013;-82
2024/04/25 05:32:59;;;;;;;14.45;8.80;;;;;;;12.21;100.00;99418.31;1792665;79;21096;-83
2024/04/25 05:35:28;;;;;;;16.20;8.90;;;;;;;12.26;100.00;99426.69;1812768;79;21041;-82
2024/04/25 05:37:57;;;;;;;23.00;10.28;;;;;;;12.29;100.00;99419.36;1812374;79;21024;-82
2024/04/25 05:40:26;;;;;;;17.10;9.50;;;;;;;12.31;100.00;99421.87;1812740;79;21024;-79
2024/04/25 05:42:54;;;;;;;18.15;9.88;;;;;;;12.34;100.00;99420.88;1812531;79;20989;-82
2024/04/25 05:45:23;;;;;;;17.42;9.13;;;;;;;12.37;100.00;99428.67;1792639;79;21028;-81
2024/04/25 05:47:52;;;;;;;22.55;10.10;;;;;;;12.37;100.00;99427.30;1814436;79;21056;-79
2024/04/25 05:50:20;;;;;;;19.20;8.93;;;;;;;12.37;100.00;99429.21;1816023;79;21009;-81
2024/04/25 05:52:49;;;;;;;15.32;8.20;;;;;;;12.40;100.00;99440.27;1813238;79;21032;-81
2024/04/25 05:55:18;;;;;;;13.00;8.20;;;;;;;12.38;100.00;99430.35;1812793;79;21064;-82
2024/04/25 05:57:46;;;;;;;12.70;7.70;;;;;;;12.38;100.00;99435.01;1792707;79;21142;-80
2024/04/25 06:00:15;;;;;;;14.03;7.90;;;;;;;12.37;100.00;99432.80;1792590;79;21111;-83
2024/04/25 06:02:44;;;;;;;10.93;7.15;;;;;;;12.41;100.00;99435.08;1812880;79;21045;-83
2024/04/25 06:05:13;;;;;;;11.05;8.13;;;;;;;12.43;100.00;99442.55;1813102;79;21013;-82
2024/04/25 06:07:41;;;;;;;14.00;7.58;;;;;;;12.44;100.00;99442.85;1812532;79;21465;-82
2024/04/25 06:10:10;;;;;;;15.48;7.80;;;;;;;12.45;100.00;99433.53;1792572;79;21554;-81
2024/04/25 06:12:39;;;;;;;14.55;8.50;;;;;;;12.45;100.00;99443.16;1812840;79;21036;-81
2024/04/25 06:15:08;;;;;;;12.90;8.13;;;;;;;12.47;100.00;99445.13;1812923;79;21133;-81
2024/04/25 06:17:40;;;;;;;12.95;8.35;;;;;;;12.48;100.00;99446.81;1812652;79;21444;-79
2024/04/25 06:20:13;;;;;;;16.50;9.60;;;;;;;12.49;100.00;99448.48;1812565;79;21019;-82
2024/04/25 06:22:51;;;;;;;14.13;8.45;;;;;;;12.54;100.00;99455.48;1803147;79;21053;-83
2024/04/25 06:25:21;;;;;;;13.28;8.50;;;;;;;12.59;100.00;99453.72;1798346;80;21021;-83
2024/04/25 06:27:49;;;;;;;16.12;9.33;;;;;;;12.65;100.00;99460.19;1798516;79;21457;-82
2024/04/25 06:30:18;;;;;;;13.30;8.38;;;;;;;12.76;100.00;99462.13;1798630;80;21034;-82
2024/04/25 06:32:47;;;;;;;17.70;7.65;;;;;;;12.96;100.00;99465.94;1776627;80;21264;-85
2024/04/25 06:35:16;;;;;;;13.10;7.05;;;;;;;13.28;100.00;99461.02;1798381;80;21041;-82
2024/04/25 06:37:44;;;;;;;12.93;7.12;;;;;;;13.67;100.00;99458.11;1798510;79;21029;-83
2024/04/25 06:40:15;;;;;;;11.97;7.00;;;;;;;14.09;100.00;99458.75;1798091;80;21025;-82
2024/04/25 06:42:43;;;;;;;13.38;7.25;;;;;;;14.47;100.00;99459.58;1776130;80;21072;-83
2024/04/25 06:45:13;;;;;;;12.68;5.92;;;;;;;14.81;100.00;99456.89;1798133;80;21057;-82
2024/04/25 06:47:42;;;;;;;15.18;6.55;;;;;;;15.09;100.00;99457.41;1776400;80;21093;-80
2024/04/25 06:50:11;;;;;;;9.55;5.67;;;;;;;15.34;100.00;99456.44;1798304;80;21037;-80
2024/04/25 06:52:39;;;;;;;12.53;7.62;;;;;;;15.61;98.61;99448.36;1798251;80;21045;-80
2024/04/25 06:55:08;;;;;;;13.10;5.03;;;;;;;15.88;96.88;99454.53;1798154;80;21057;-83
2024/04/25 06:57:37;;;;;;;11.22;4.80;;;;;;;16.17;94.26;99451.87;1797958;80;21056;-80
2024/04/25 07:00:07;;;;;;;8.35;4.60;;;;;;;16.42;92.01;99458.28;1798049;79;21037;-80
2024/04/25 07:02:41;;;;;;;10.85;5.05;;;;;;;16.73;89.65;99470.55;1798053;79;21445;-81
2024/04/25 07:05:09;;;;;;;11.97;4.95;;;;;;;17.01;88.06;99467.53;1798147;80;21017;-82
2024/04/25 07:07:38;;;;;;;12.13;5.35;;;;;;;17.30;85.13;99472.77;1776221;80;21041;-80
2024/04/25 07:10:08;;;;;;;7.08;3.98;;;;;;;17.42;80.87;99469.26;1798123;80;21072;-78
2024/04/25 07:12:36;;;;;;;15.25;5.95;;;;;;;17.52;80.72;99469.88;1798299;79;21434;-81
2024/04/25 07:15:09;;;;;;;6.20;3.50;;;;;;;17.71;79.66;99477.56;1798126;80;21010;-80
2024/04/25 07:17:38;;;;;;;13.80;4.00;;;;;;;17.90;77.62;99482.12;1798004;79;21045;-82
2024/04/25 07:20:07;;;;;;;8.48;3.50;;;;;;;18.08;76.37;99485.54;1797995;79;21073;-80
2024/04/25 07:22:36;;;;;;;7.33;3.55;;;;;;;18.16;74.13;99491.95;1798039;79;21045;-80
2024/04/25 07:25:08;;;;;;;9.40;3.33;;;;;;;18.16;73.29;99488.63;1798247;80;20990;-81
2024/04/25 07:27:35;;;;;;;6.10;3.65;;;;;;;18.14;72.92;99486.68;1798122;80;21048;-81
2024/04/25 07:30:06;;;;;;;8.85;3.60;;;;;;;18.07;71.85;99493.02;1797936;79;21131;-82
2024/04/25 07:32:36;;;;;;;6.67;3.42;;;;;;;18.05;71.68;99487.74;1798281;79;21032;-82
2024/04/25 07:35:05;;;;;;;7.58;3.27;;;;;;;18.03;71.31;99483.57;1776386;80;21010;-82
2024/04/25 07:37:35;;;;;;;6.17;3.27;;;;;;;18.05;71.24;99489.69;1798042;80;21085;-81
2024/04/25 07:40:05;;;;;;;8.05;3.17;;;;;;;18.10;69.91;99485.55;1797821;79;21088;-79
2024/04/25 07:42:34;;;;;;;9.90;3.33;;;;;;;18.12;68.88;99487.50;1798028;79;21101;-79
2024/04/25 07:45:02;;;;;;;3.85;2.62;;;;;;;18.20;70.09;99486.98;1798020;79;20994;-80
2024/04/25 07:47:31;;;;;;;6.78;3.20;;;;;;;18.43;69.18;99489.05;1797983;80;21446;-81
2024/04/25 07:50:00;;;;;;;18.07;4.50;;;;;;;18.66;68.34;99485.84;1798055;80;21410;-79
2024/04/25 07:52:31;;;;;;;7.20;2.77;;;;;;;18.87;67.02;99487.58;1793463;80;21116;-82
2024/04/25 07:55:04;;;;;;;5.22;2.42;;;;;;;19.10;65.95;99487.62;1773271;80;20993;-82
2024/04/25 07:57:35;;;;;;;6.30;2.45;;;;;;;19.26;64.12;99485.69;1722370;81;21089;-80
2024/04/25 08:00:07;;;;;;;3.45;2.08;;;;;;;19.31;63.34;99483.75;1704978;84;21161;-77
2024/04/25 08:02:38;;;;;;;5.92;2.85;;;;;;;19.42;63.08;99489.30;1704544;84;21100;-79
2024/04/25 08:05:07;;;;;;;3.98;2.47;;;;;;;19.46;62.26;99484.85;1705488;84;21088;-78
2024/04/25 08:07:37;;;;;;;9.03;3.35;;;;;;;19.47;60.93;99491.52;1706690;83;21061;-78
2024/04/25 08:10:07;;;;;;;6.40;2.90;;;;;;;19.42;60.78;99486.52;1715304;81;21472;-78
2024/04/25 08:12:37;;;;;;;3.87;2.33;;;;;;;19.48;61.10;99488.19;1780049;80;21420;-78
2024/04/25 08:15:06;;;;;;;5.47;2.52;;;;;;;19.59;60.99;99482.96;1792524;80;21017;-79
2024/04/25 08:17:36;;;;;;;7.25;2.62;;;;;;;19.69;59.67;99487.12;1792438;80;21035;-79
2024/04/25 08:20:07;;;;;;;6.50;2.80;;;;;;;19.79;58.91;99482.94;1771465;80;21475;-78
2024/04/25 08:22:36;;;;;;;7.22;2.85;;;;;;;20.00;58.88;99481.50;1783495;80;21047;-79
2024/04/25 08:25:06;;;;;;;4.20;2.33;;;;;;;20.21;58.01;99481.74;1761443;80;21006;-83
2024/04/25 08:27:35;;;;;;;6.30;4.05;;;;;;;20.43;57.50;99481.41;1791271;80;21478;-82
2024/04/25 08:30:05;;;;;;;15.00;4.22;;;;;;;20.53;54.48;99484.14;1760029;80;21087;-82
2024/04/25 08:32:34;;;;;;;8.30;2.55;;;;;;;20.51;55.28;99482.20;1745698;82;21061;-81
2024/04/25 08:35:05;;;;;;;6.25;2.52;;;;;;;20.57;56.03;99483.84;1788472;80;21413;-82
2024/04/25 08:37:35;;;;;;;3.67;2.27;;;;;;;20.56;55.29;99481.63;1745462;82;21088;-82
2024/04/25 08:40:05;;;;;;;6.05;2.40;;;;;;;20.50;55.66;99476.37;1789181;80;21442;-79
2024/04/25 08:42:34;;;;;;;6.12;2.22;;;;;;;20.39;55.52;99473.33;1793232;80;20995;-80
2024/04/25 08:45:04;;;;;;;4.58;2.10;;;;;;;20.20;55.26;99467.56;1792877;80;20990;-81
2024/04/25 08:47:35;;;;;;;4.25;2.70;;;;;;;19.99;55.45;99471.48;1792978;80;21038;-77
2024/04/25 08:50:07;;;;;;;6.80;2.47;;;;;;;19.77;55.87;99474.04;1793112;80;21046;-78
2024/04/25 08:52:42;;;;;;;7.55;2.60;;;;;;;19.61;56.64;99472.40;1793042;80;21002;-78
2024/04/25 08:55:13;;;;;;;7.35;2.37;;;;;;;19.49;56.62;99460.68;1792769;80;21049;-80
2024/04/25 08:57:42;;;;;;;7.05;2.42;;;;;;;19.33;57.42;99459.30;1793142;80;21039;-79
2024/04/25 09:00:13;;;;;;;3.95;2.20;;;;;;;19.22;57.94;99465.97;1763213;80;20998;-77
2024/04/25 09:02:42;;;;;;;5.42;2.62;;;;;;;19.15;58.36;99461.80;1748125;81;21522;-79
2024/04/25 09:05:11;;;;;;;6.72;2.60;;;;;;;19.08;59.01;99457.07;1761856;81;21030;-79
2024/04/25 09:07:44;;;;;;;3.35;2.10;;;;;;;18.99;59.63;99464.56;1761903;81;21092;-80
2024/04/25 09:10:13;;;;;;;9.83;2.75;;;;;;;18.92;60.08;99464.55;1762017;81;20991;-78
2024/04/25 09:12:42;;;;;;;7.10;2.50;;;;;;;18.83;58.87;99466.17;1761863;81;21078;-79
2024/04/25 09:15:11;;;;;;;6.42;3.15;;;;;;;18.74;59.29;99460.33;1761628;81;21115;-79
2024/04/25 09:17:39;;;;;;;5.67;2.30;;;;;;;18.66;59.65;99465.86;1732788;81;21062;-80
2024/04/25 09:20:09;;;;;;;7.72;3.50;;;;;;;18.62;60.13;99474.45;1761863;81;21532;-80
2024/04/25 09:22:40;;;;;;;4.35;2.30;;;;;;;18.61;60.29;99478.33;1755042;81;21100;-78
2024/04/25 09:25:08;;;;;;;6.45;2.20;;;;;;;18.58;60.06;99471.91;1681448;84;21098;-76
2024/04/25 09:27:39;;;;;;;7.70;2.80;;;;;;;18.53;59.68;99466.34;1725063;82;21053;-76
2024/04/25 09:30:09;;;;;;;6.35;2.25;;;;;;;18.48;60.06;99461.33;1682016;84;21048;-73
2024/04/25 09:32:42;;;;;;;4.90;2.50;;;;;;;18.47;59.94;99461.05;1724956;82;21629;-79
2024/04/25 09:35:14;;;;;;;7.58;3.08;;;;;;;18.45;60.68;99459.94;1682515;83;21066;-77
2024/04/25 09:37:43;;;;;;;5.05;3.15;;;;;;;18.42;60.65;99457.71;1725311;82;21116;-75
2024/04/25 09:40:12;;;;;;;6.55;2.70;;;;;;;18.44;60.85;99465.20;1683032;83;21069;-77
2024/04/25 09:42:40;;;;;;;5.53;2.50;;;;;;;18.47;60.47;99459.11;1686523;84;21442;-76
2024/04/25 09:45:11;;;;;;;5.22;2.17;;;;;;;18.51;60.83;99463.02;1724819;83;21770;-75
2024/04/25 09:47:54;;;;;;;8.10;2.60;;;;;;;18.60;60.11;99473.02;1682134;84;21431;-76
2024/04/25 09:50:27;;;;;;;5.78;2.50;;;;;;;18.66;59.68;99472.80;1725142;82;21072;-75
2024/04/25 09:53:04;;;;;;;6.50;2.15;;;;;;;18.71;58.85;99471.97;1681794;84;21526;-75
2024/04/25 09:55:39;;;;;;;;;;;;;;;18.73;58.70;99467.54;1727436;83;21083;-74
2024/04/25 09:58:27;;;;;;;10.75;2.65;;;;;;;18.74;58.67;99471.98;1724986;83;20226;-74
2024/04/25 10:00:56;;;;;;;6.47;2.22;;;;;;;18.72;58.91;99467.26;1681748;83;21045;-77
2024/04/25 10:03:25;;;;;;;6.05;2.35;;;;;;;18.72;58.56;99462.55;1748848;82;21447;-75
2024/04/25 10:05:54;;;;;;;5.83;2.10;;;;;;;18.73;58.60;99466.16;1755021;82;21056;-78
2024/04/25 10:08:22;;;;;;;4.15;2.30;;;;;;;18.76;59.18;99453.11;1738723;82;21047;-78
2024/04/25 10:10:54;;;;;;;6.50;2.55;;;;;;;18.80;59.11;99451.45;1755115;81;21043;-75
2024/04/25 10:13:25;;;;;;;4.87;2.50;;;;;;;18.82;59.42;99443.69;1736530;82;21111;-77
2024/04/25 10:15:57;;;;;;;13.55;6.25;;;;;;;18.83;59.37;99448.97;1754976;82;21483;-77
2024/04/25 10:18:26;;;;;;;11.93;2.77;;;;;;;18.84;59.19;99440.92;1755135;82;21113;-76
2024/04/25 10:21:04;;;;;;;6.62;3.70;;;;;;;18.85;59.73;99438.42;1738648;82;21114;-76
2024/04/25 10:23:35;;;;;;;6.65;2.30;;;;;;;18.90;59.68;99439.02;1752123;81;21055;-75
2024/04/25 10:26:04;;;;;;;4.65;2.47;;;;;;;18.91;59.63;99436.52;1748441;82;21031;-75
2024/04/25 10:28:33;;;;;;;9.93;2.12;;;;;;;18.92;59.76;99442.34;1727483;82;21317;-75
2024/04/25 10:31:02;;;;;;;5.47;2.30;;;;;;;18.96;59.24;99442.07;1748147;82;21063;-76
2024/04/25 10:33:32;;;;;;;10.60;3.25;;;;;;;18.97;58.91;99440.96;1748155;82;21106;-76
2024/04/25 10:36:05;;;;;;;4.17;2.30;;;;;;;18.98;59.22;99447.63;1727746;82;21082;-74
2024/04/25 10:38:35;;;;;;;6.10;2.30;;;;;;;19.02;58.34;99442.35;1748355;82;21039;-76
2024/04/25 10:41:06;;;;;;;3.75;2.37;;;;;;;19.04;58.77;99435.14;1727143;82;21055;-76
2024/04/25 10:43:46;;;;;;;8.23;2.95;;;;;;;19.03;59.15;99441.25;1748181;82;21062;-75
2024/04/25 10:46:15;;;;;;;5.03;2.27;;;;;;;19.04;59.50;99440.69;1751699;82;21063;-75
2024/04/25 10:48:43;;;;;;;7.15;3.92;;;;;;;19.11;57.99;99432.92;1727284;82;21067;-75
2024/04/25 10:51:12;;;;;;;8.48;3.22;;;;;;;19.23;58.39;99437.09;1727540;82;21087;-74
2024/04/25 10:53:41;;;;;;;9.35;2.50;;;;;;;19.32;58.37;99438.19;1747911;82;21059;-75
2024/04/25 10:56:10;;;;;;;8.55;3.22;;;;;;;19.42;58.08;99432.34;1748194;82;21056;-74
2024/04/25 10:58:40;;;;;;;4.40;2.25;;;;;;;19.50;58.19;99426.22;1748030;82;21008;-75
2024/04/25 11:01:09;;;;;;;4.35;2.75;;;;;;;19.56;57.76;99429.34;1727373;82;21111;-74
2024/04/25 11:03:39;;;;;;;4.55;2.40;;;;;;;19.53;57.62;99422.39;1791582;80;21129;-77
2024/04/25 11:06:08;;;;;;;9.15;2.87;;;;;;;19.52;57.92;99422.64;1777464;80;21104;-74
2024/04/25 11:08:37;;;;;;;6.28;2.77;;;;;;;19.48;57.78;99417.34;1752491;80;20996;-74
2024/04/25 11:11:06;;;;;;;7.17;2.72;;;;;;;19.43;58.29;99410.40;1797096;79;20988;-74
2024/04/25 11:13:34;;;;;;;5.72;2.70;;;;;;;19.39;58.87;99412.08;1797257;79;21016;-75
2024/04/25 11:16:05;;;;;;;5.80;2.80;;;;;;;19.36;59.23;99412.08;1777974;80;21052;-78
2024/04/25 11:18:36;;;;;;;13.22;3.67;;;;;;;19.32;59.90;99403.47;1797000;80;20992;-78
2024/04/25 11:21:06;;;;;;;6.85;2.65;;;;;;;19.31;59.86;99402.36;1796897;80;21060;-77
2024/04/25 11:23:35;;;;;;;4.85;2.67;;;;;;;19.27;60.07;99393.75;1797814;79;21000;-77
2024/04/25 11:26:04;;;;;;;8.48;3.08;;;;;;;19.27;60.05;99399.31;1825950;78;21023;-76
2024/04/25 11:28:32;;;;;;;7.97;3.08;;;;;;;19.27;60.55;99386.81;1825641;78;21461;-76
2024/04/25 11:31:01;;;;;;;8.23;2.75;;;;;;;19.31;60.15;99380.97;1825530;78;21054;-79
2024/04/25 11:33:31;;;;;;;6.22;2.65;;;;;;;19.33;60.16;99371.80;1825818;78;21022;-73
2024/04/25 11:36:00;;;;;;;6.90;2.87;;;;;;;19.32;60.73;99364.58;1794235;78;21007;-74
2024/04/25 11:38:30;;;;;;;10.90;2.92;;;;;;;19.33;60.05;99364.86;1825712;78;21066;-72
2024/04/25 11:40:59;;;;;;;14.35;3.40;;;;;;;19.37;59.93;99357.35;1825677;78;20994;-77